Time;durP1;ratioP1;P1;durP2;ratioP2;P2;SDS_P1;SDS_P2;PMS_P1;PMS_P2;Temp;Humidity;BMP_temperature;BMP_pressure;BME280_temperature;BME280_humidity;BME280_pressure;Samples;Min_cycle;Max_cycle;Signal;HPM_P1;HPM_P2
2021/12/24 00:01:49;;;;;;;;;;;;;;;;;;4183498;28;32170;-54
2021/12/24 00:04:10;;;;;;;;;;;;;;;;;;4183852;28;32049;-54
2021/12/24 00:06:32;;;;;;;;;;;;;;;;;;4183309;28;31769;-55
2021/12/24 00:08:55;;;;;;;;;;;;;;;;;;4183645;28;31602;-55
2021/12/24 00:11:18;;;;;;;;;;;;;;;;;;4183569;28;31676;-57
2021/12/24 00:13:42;;;;;;;;;;;;;;;;;;4183499;28;31742;-55
2021/12/24 00:16:08;;;;;;;;;;;;;;;;;;4183618;28;32226;-54
2021/12/24 00:18:40;;;;;;;;;;;;;;;;;;4183501;28;31545;-55
2021/12/24 00:37:06;;;;;;;;;;;;;;;;;;4183144;28;31319;-54
2021/12/24 00:39:28;;;;;;;;;;;;;;;;;;4182926;28;31435;-54
2021/12/24 00:41:50;;;;;;;;;;;;;;;;;;4182890;28;31320;-55
2021/12/24 00:44:11;;;;;;;;;;;;;;;;;;4182870;28;31695;-55
2021/12/24 00:46:34;;;;;;;;;;;;;;;;;;4181217;28;31819;-55
2021/12/24 00:48:59;;;;;;;;;;;;;;;;;;4183201;28;31657;-55
2021/12/24 00:51:30;;;;;;;;;;;;;;;;;;4182410;28;31859;-55
2021/12/24 00:56:39;;;;;;;;;;;;;;;;;;4145668;28;31678;-54
2021/12/24 00:59:02;;;;;;;;;;;;;;;;;;4181519;28;31738;-55
2021/12/24 01:01:23;;;;;;;;;;;;;;;;;;4180865;28;31587;-55
2021/12/24 01:03:45;;;;;;;;;;;;;;;;;;4182576;28;32229;-54
2021/12/24 01:06:06;;;;;;;;;;;;;;;;;;4181341;28;32789;-54
2021/12/24 01:08:28;;;;;;;;;;;;;;;;;;4181561;28;31870;-55
2021/12/24 01:10:50;;;;;;;;;;;;;;;;;;4182789;28;31361;-55
2021/12/24 01:13:11;;;;;;;;;;;;;;;;;;4182539;28;32205;-54
2021/12/24 01:15:37;;;;;;;;;;;;;;;;;;4182552;28;32242;-55
2021/12/24 01:18:04;;;;;;;;;;;;;;;;;;4181279;28;32090;-55
2021/12/24 01:20:30;;;;;;;;;;;;;;;;;;4182242;28;32154;-55
2021/12/24 01:25:35;;;;;;;;;;;;;;;;;;4182442;28;32244;-55
2021/12/24 01:28:13;;;;;;;;;;;;;;;;;;4182038;28;31643;-55
2021/12/24 01:38:48;;;;;;;;;;;;;;;;;;4180979;28;31912;-55
2021/12/24 01:41:19;;;;;;;;;;;;;;;;;;4182213;28;31629;-55
2021/12/24 01:43:39;;;;;;;;;;;;;;;;;;4180743;28;31740;-55
2021/12/24 01:46:03;;;;;;;;;;;;;;;;;;4180928;28;32434;-55
2021/12/24 01:48:24;;;;;;;;;;;;;;;;;;4180845;28;31679;-55
2021/12/24 01:50:47;;;;;;;;;;;;;;;;;;4180454;28;32044;-55
2021/12/24 01:53:08;;;;;;;;;;;;;;;;;;4180369;28;32215;-55
2021/12/24 01:55:32;;;;;;;;;;;;;;;;;;4195104;28;31727;-55
2021/12/24 01:57:53;;;;;;;;;;;;;;;;;;4194840;28;32204;-55
2021/12/24 02:03:45;;;;;;;;;;;;;;;;;;4184075;28;31596;-55
2021/12/24 02:06:07;;;;;;;;;;;;;;;;;;4184553;28;31355;-55
2021/12/24 02:08:28;;;;;;;;;;;;;;;;;;4197360;28;32249;-54
2021/12/24 02:10:50;;;;;;;;;;;;;;;;;;4183911;28;31749;-55
2021/12/24 02:13:13;;;;;;;;;;;;;;;;;;4183365;28;32305;-54
2021/12/24 02:15:48;;;;;;;;;;;;;;;;;;4183585;28;31132;-55
2021/12/24 02:18:43;;;;;;;;;;;;;;;;;;4184700;28;31652;-54
2021/12/24 02:29:02;;;;;;;;;;;;;;;;;;4183163;28;31835;-55
2021/12/24 02:31:24;;;;;;;;;;;;;;;;;;4183498;28;32053;-54
2021/12/24 02:33:45;;;;;;;;;;;;;;;;;;4183336;28;32244;-56
2021/12/24 02:36:08;;;;;;;;;;;;;;;;;;4184833;28;31612;-54
2021/12/24 02:38:29;;;;;;;;;;;;;;;;;;4184822;28;31862;-55
2021/12/24 02:40:50;;;;;;;;;;;;;;;;;;4185065;28;32055;-55
2021/12/24 02:43:15;;;;;;;;;;;;;;;;;;4183429;28;31519;-54
2021/12/24 02:45:38;;;;;;;;;;;;;;;;;;4185064;28;31598;-54
2021/12/24 02:48:35;;;;;;;;;;;;;;;;;;4184769;28;32281;-54
2021/12/24 02:56:14;;;;;;;;;;;;;;;;;;4184038;28;31898;-55
2021/12/24 02:58:39;;;;;;;;;;;;;;;;;;4183929;28;31341;-54
2021/12/24 03:01:00;;;;;;;;;;;;;;;;;;4197399;28;32075;-55
2021/12/24 03:03:22;;;;;;;;;;;;;;;;;;4197536;28;32153;-54
2021/12/24 03:05:43;;;;;;;;;;;;;;;;;;4197447;28;32274;-54
2021/12/24 03:08:04;;;;;;;;;;;;;;;;;;4197350;28;31809;-54
2021/12/24 03:10:27;;;;;;;;;;;;;;;;;;4197777;28;31600;-54
2021/12/24 03:12:50;;;;;;;;;;;;;;;;;;4196165;28;31709;-54
2021/12/24 03:15:12;;;;;;;;;;;;;;;;;;4184195;28;31607;-54
2021/12/24 03:17:33;;;;;;;;;;;;;;;;;;4197413;28;31546;-54
2021/12/24 03:19:58;;;;;;;;;;;;;;;;;;4197336;28;32123;-54
2021/12/24 03:22:43;;;;;;;;;;;;;;;;;;4182970;28;31829;-55
2021/12/24 03:25:06;;;;;;;;;;;;;;;;;;4169057;28;31872;-54
2021/12/24 03:27:28;;;;;;;;;;;;;;;;;;4182933;28;31604;-55
2021/12/24 03:29:50;;;;;;;;;;;;;;;;;;4183176;28;31926;-54
2021/12/24 03:32:12;;;;;;;;;;;;;;;;;;4196563;28;31681;-54
2021/12/24 03:34:33;;;;;;;;;;;;;;;;;;4195653;28;31455;-54
2021/12/24 03:36:55;;;;;;;;;;;;;;;;;;4180835;28;31658;-55
2021/12/24 03:39:21;;;;;;;;;;;;;;;;;;4181024;28;31622;-55
2021/12/24 03:41:43;;;;;;;;;;;;;;;;;;4182279;28;31737;-55
2021/12/24 03:44:07;;;;;;;;;;;;;;;;;;4180579;28;31337;-54
2021/12/24 03:46:35;;;;;;;;;;;;;;;;;;4181275;28;31337;-54
2021/12/24 03:48:59;;;;;;;;;;;;;;;;;;4181331;28;31799;-54
2021/12/24 03:51:31;;;;;;;;;;;;;;;;;;4165908;28;31404;-54
2021/12/24 03:56:32;;;;;;;;;;;;;;;;;;4194100;28;31793;-55
2021/12/24 03:58:54;;;;;;;;;;;;;;;;;;4165737;28;31555;-54
2021/12/24 04:01:36;;;;;;;;;;;;;;;;;;4167088;28;32213;-54
2021/12/24 04:04:20;;;;;;;;;;;;;;;;;;4167021;28;30829;-54
2021/12/24 04:07:00;;;;;;;;;;;;;;;;;;4166937;28;31860;-54
2021/12/24 04:09:58;;;;;;;;;;;;;;;;;;4165427;28;31609;-55
2021/12/24 04:12:40;;;;;;;;;;;;;;;;;;4166320;28;32271;-54
2021/12/24 04:15:01;;;;;;;;;;;;;;;;;;4180894;28;31621;-54
2021/12/24 04:17:24;;;;;;;;;;;;;;;;;;4196241;28;32216;-57
2021/12/24 04:25:03;;;;;;;;;;;;;;;;;;4195438;28;31706;-54
2021/12/24 04:27:25;;;;;;;;;;;;;;;;;;4196291;28;31589;-54
2021/12/24 04:29:47;;;;;;;;;;;;;;;;;;4196330;28;33188;-54
2021/12/24 04:32:12;;;;;;;;;;;;;;;;;;4214935;28;30965;-55
2021/12/24 04:34:43;;;;;;;;;;;;;;;;;;4183069;28;31633;-55
2021/12/24 04:39:56;;;;;;;;;;;;;;;;;;4181424;28;32141;-54
2021/12/24 05:01:30;;;;;;;;;;;;;;;;;;4164628;28;32069;-55
2021/12/24 05:03:52;;;;;;;;;;;;;;;;;;4182463;28;32223;-55
2021/12/24 05:06:27;;;;;;;;;;;;;;;;;;4195271;28;31692;-55
2021/12/24 05:08:53;;;;;;;;;;;;;;;;;;4195613;28;32232;-55
2021/12/24 05:11:14;;;;;;;;;;;;;;;;;;4181271;28;31782;-55
2021/12/24 05:13:36;;;;;;;;;;;;;;;;;;4196748;28;1143;-55
2021/12/24 05:16:41;;;;;;;;;;;;;;;;;;4173405;28;31790;-54
2021/12/24 05:22:32;;;;;;;;;;;;;;;;;;4177212;28;32050;-55
2021/12/24 05:24:58;;;;;;;;;;;;;;;;;;4180860;28;31725;-55
2021/12/24 05:27:19;;;;;;;;;;;;;;;;;;4182283;28;32733;-55
2021/12/24 05:29:42;;;;;;;;;;;;;;;;;;4195279;28;31536;-55
2021/12/24 05:32:04;;;;;;;;;;;;;;;;;;4195373;28;32411;-55
2021/12/24 05:34:25;;;;;;;;;;;;;;;;;;4195358;28;32288;-55
2021/12/24 05:36:50;;;;;;;;;;;;;;;;;;4181832;28;32205;-55
2021/12/24 05:39:14;;;;;;;;;;;;;;;;;;4195045;28;32161;-54
2021/12/24 05:41:36;;;;;;;;;;;;;;;;;;4180585;28;31735;-55
2021/12/24 05:43:58;;;;;;;;;;;;;;;;;;4195429;28;31672;-55
2021/12/24 05:46:20;;;;;;;;;;;;;;;;;;4180762;28;31219;-54
2021/12/24 05:49:00;;;;;;;;;;;;;;;;;;4182090;28;32111;-55
2021/12/24 05:51:23;;;;;;;;;;;;;;;;;;4195161;28;31700;-55
2021/12/24 05:54:11;;;;;;;;;;;;;;;;;;4176611;28;31578;-55
2021/12/24 05:56:33;;;;;;;;;;;;;;;;;;4180503;28;32191;-55
2021/12/24 05:59:06;;;;;;;;;;;;;;;;;;4183197;28;31437;-55
2021/12/24 06:01:28;;;;;;;;;;;;;;;;;;4194819;28;32180;-55
2021/12/24 06:03:49;;;;;;;;;;;;;;;;;;4181798;28;31959;-55
2021/12/24 06:06:10;;;;;;;;;;;;;;;;;;4181753;28;31916;-55
2021/12/24 06:08:32;;;;;;;;;;;;;;;;;;4181903;28;31538;-55
2021/12/24 06:10:53;;;;;;;;;;;;;;;;;;4181713;28;31739;-55
2021/12/24 06:13:15;;;;;;;;;;;;;;;;;;4180238;28;31960;-55
2021/12/24 06:15:42;;;;;;;;;;;;;;;;;;4181869;28;31647;-55
2021/12/24 06:18:11;;;;;;;;;;;;;;;;;;4181954;28;31735;-55
2021/12/24 06:20:33;;;;;;;;;;;;;;;;;;4181856;28;31593;-55
2021/12/24 06:22:54;;;;;;;;;;;;;;;;;;4182018;28;31675;-55
2021/12/24 06:25:15;;;;;;;;;;;;;;;;;;4181599;28;32689;-55
2021/12/24 06:27:36;;;;;;;;;;;;;;;;;;4181331;28;33762;-55
2021/12/24 06:29:59;;;;;;;;;;;;;;;;;;4181810;28;31502;-55
2021/12/24 06:32:20;;;;;;;;;;;;;;;;;;4181879;28;31708;-55
2021/12/24 06:34:41;;;;;;;;;;;;;;;;;;4181642;28;31236;-55
2021/12/24 06:37:02;;;;;;;;;;;;;;;;;;4181639;28;32138;-54
2021/12/24 06:39:24;;;;;;;;;;;;;;;;;;4181445;28;31796;-54
2021/12/24 06:41:45;;;;;;;;;;;;;;;;;;4181778;28;31660;-55
2021/12/24 06:44:10;;;;;;;;;;;;;;;;;;4194391;28;31657;-55
2021/12/24 06:46:32;;;;;;;;;;;;;;;;;;4181290;28;31702;-55
2021/12/24 06:48:56;;;;;;;;;;;;;;;;;;4183402;28;32241;-55
2021/12/24 06:51:17;;;;;;;;;;;;;;;;;;4184768;28;32090;-55
2021/12/24 06:53:39;;;;;;;;;;;;;;;;;;4184573;28;32252;-55
2021/12/24 06:56:00;;;;;;;;;;;;;;;;;;4197959;28;32138;-55
2021/12/24 06:58:22;;;;;;;;;;;;;;;;;;4197818;28;31661;-54
2021/12/24 07:00:43;;;;;;;;;;;;;;;;;;4197519;28;32684;-55
2021/12/24 07:03:06;;;;;;;;;;;;;;;;;;4197676;28;31957;-54
2021/12/24 07:05:27;;;;;;;;;;;;;;;;;;4184572;28;31994;-55
2021/12/24 07:07:48;;;;;;;;;;;;;;;;;;4184322;28;31713;-55
2021/12/24 07:10:09;;;;;;;;;;;;;;;;;;4184508;28;32074;-55
2021/12/24 07:12:31;;;;;;;;;;;;;;;;;;4184462;28;32035;-55
2021/12/24 07:14:52;;;;;;;;;;;;;;;;;;4184074;28;31761;-55
2021/12/24 07:17:13;;;;;;;;;;;;;;;;;;4183680;28;32164;-54
2021/12/24 07:19:36;;;;;;;;;;;;;;;;;;4184200;28;31645;-55
2021/12/24 07:21:57;;;;;;;;;;;;;;;;;;4197354;28;31083;-55
2021/12/24 07:24:19;;;;;;;;;;;;;;;;;;4184178;28;32172;-54
2021/12/24 07:26:40;;;;;;;;;;;;;;;;;;4184061;28;32125;-55
2021/12/24 07:29:01;;;;;;;;;;;;;;;;;;4184026;28;31502;-54
2021/12/24 07:31:22;;;;;;;;;;;;;;;;;;4184305;28;31591;-55
2021/12/24 07:33:44;;;;;;;;;;;;;;;;;;4183991;28;31643;-55
2021/12/24 07:36:07;;;;;;;;;;;;;;;;;;4183825;28;31742;-55
2021/12/24 07:38:28;;;;;;;;;;;;;;;;;;4184085;28;31706;-55
2021/12/24 07:40:49;;;;;;;;;;;;;;;;;;4183922;28;31003;-55
2021/12/24 07:43:10;;;;;;;;;;;;;;;;;;4183807;28;32144;-55
2021/12/24 07:45:31;;;;;;;;;;;;;;;;;;4183801;28;31370;-55
2021/12/24 07:48:07;;;;;;;;;;;;;;;;;;4183739;28;32360;-55
2021/12/24 07:53:05;;;;;;;;;;;;;;;;;;4183934;28;31549;-56
2021/12/24 07:55:27;;;;;;;;;;;;;;;;;;4183925;28;31724;-55
2021/12/24 07:57:50;;;;;;;;;;;;;;;;;;4183878;28;31801;-54
2021/12/24 08:00:12;;;;;;;;;;;;;;;;;;4182647;28;31632;-54
2021/12/24 08:02:37;;;;;;;;;;;;;;;;;;4183595;28;31799;-56
2021/12/24 08:04:58;;;;;;;;;;;;;;;;;;4183616;28;31733;-55
2021/12/24 08:07:20;;;;;;;;;;;;;;;;;;4183309;28;31650;-55
2021/12/24 08:09:43;;;;;;;;;;;;;;;;;;4183612;28;31701;-55
2021/12/24 08:12:05;;;;;;;;;;;;;;;;;;4183761;28;32212;-54
2021/12/24 08:14:26;;;;;;;;;;;;;;;;;;4183815;28;31523;-55
2021/12/24 08:16:48;;;;;;;;;;;;;;;;;;4183433;28;32195;-54
2021/12/24 08:19:09;;;;;;;;;;;;;;;;;;4176686;28;31731;-55
2021/12/24 08:21:30;;;;;;;;;;;;;;;;;;4182906;28;31623;-54
2021/12/24 08:23:51;;;;;;;;;;;;;;;;;;4182928;28;31715;-54
2021/12/24 08:26:14;;;;;;;;;;;;;;;;;;4183319;28;31575;-55
2021/12/24 08:28:35;;;;;;;;;;;;;;;;;;4183274;28;31543;-54
2021/12/24 08:30:56;;;;;;;;;;;;;;;;;;4182845;28;31598;-54
2021/12/24 08:33:18;;;;;;;;;;;;;;;;;;4182485;28;31768;-55
2021/12/24 08:35:39;;;;;;;;;;;;;;;;;;4182825;28;31672;-54
2021/12/24 08:38:00;;;;;;;;;;;;;;;;;;4182808;28;31721;-54
2021/12/24 08:40:22;;;;;;;;;;;;;;;;;;4173421;28;31696;-55
2021/12/24 08:42:44;;;;;;;;;;;;;;;;;;4182837;28;32126;-55
2021/12/24 08:45:06;;;;;;;;;;;;;;;;;;4182940;28;31899;-54
2021/12/24 08:47:26;;;;;;;;;;;;;;;;;;4182899;28;31712;-54
2021/12/24 08:49:48;;;;;;;;;;;;;;;;;;4182737;28;31332;-55
2021/12/24 08:52:09;;;;;;;;;;;;;;;;;;4182977;28;32154;-55
2021/12/24 08:54:30;;;;;;;;;;;;;;;;;;4182385;28;31704;-54
2021/12/24 08:56:52;;;;;;;;;;;;;;;;;;4182938;28;31026;-54
2021/12/24 08:59:14;;;;;;;;;;;;;;;;;;4182804;28;31689;-54
2021/12/24 09:01:35;;;;;;;;;;;;;;;;;;4182847;28;31754;-54
2021/12/24 09:03:57;;;;;;;;;;;;;;;;;;4182552;28;31634;-54
2021/12/24 09:06:18;;;;;;;;;;;;;;;;;;4167057;28;31713;-54
2021/12/24 09:08:42;;;;;;;;;;;;;;;;;;4168648;28;32270;-54
2021/12/24 09:11:03;;;;;;;;;;;;;;;;;;4182235;28;31798;-55
2021/12/24 09:13:25;;;;;;;;;;;;;;;;;;4187672;28;31729;-54
2021/12/24 09:15:47;;;;;;;;;;;;;;;;;;4183092;28;32668;-54
2021/12/24 09:18:08;;;;;;;;;;;;;;;;;;4182810;28;31549;-54
2021/12/24 09:20:34;;;;;;;;;;;;;;;;;;4182624;28;32298;-56
2021/12/24 09:22:55;;;;;;;;;;;;;;;;;;4180337;28;31379;-55
2021/12/24 09:25:17;;;;;;;;;;;;;;;;;;4181397;28;31523;-55
2021/12/24 09:27:39;;;;;;;;;;;;;;;;;;4181624;28;31646;-55
2021/12/24 09:30:00;;;;;;;;;;;;;;;;;;4181672;28;31292;-55
2021/12/24 09:32:23;;;;;;;;;;;;;;;;;;4181769;28;32241;-55
2021/12/24 09:34:44;;;;;;;;;;;;;;;;;;4181884;28;31940;-55
2021/12/24 09:37:05;;;;;;;;;;;;;;;;;;4181512;28;31832;-56
2021/12/24 09:39:27;;;;;;;;;;;;;;;;;;4181929;28;31636;-55
2021/12/24 09:41:48;;;;;;;;;;;;;;;;;;4181896;28;31875;-56
2021/12/24 09:44:10;;;;;;;;;;;;;;;;;;4181100;28;31854;-55
2021/12/24 09:46:31;;;;;;;;;;;;;;;;;;4181932;28;31256;-55
2021/12/24 09:48:53;;;;;;;;;;;;;;;;;;4181814;28;31423;-56
2021/12/24 09:51:15;;;;;;;;;;;;;;;;;;4182113;28;31715;-56
2021/12/24 09:53:37;;;;;;;;;;;;;;;;;;4180855;28;32182;-55
2021/12/24 09:55:58;;;;;;;;;;;;;;;;;;4181708;28;31806;-55
2021/12/24 09:58:19;;;;;;;;;;;;;;;;;;4175934;28;31825;-56
2021/12/24 10:00:41;;;;;;;;;;;;;;;;;;4172497;28;31622;-55
2021/12/24 10:03:02;;;;;;;;;;;;;;;;;;4176516;28;31721;-56
2021/12/24 10:05:28;;;;;;;;;;;;;;;;;;4169022;28;32188;-56
2021/12/24 10:07:50;;;;;;;;;;;;;;;;;;4165263;28;32111;-55
2021/12/24 10:10:11;;;;;;;;;;;;;;;;;;4166769;28;32034;-56
2021/12/24 10:12:32;;;;;;;;;;;;;;;;;;4177279;28;31642;-56
2021/12/24 10:14:54;;;;;;;;;;;;;;;;;;4181483;28;32067;-56
2021/12/24 10:17:16;;;;;;;;;;;;;;;;;;4165510;28;31741;-56
2021/12/24 10:19:44;;;;;;;;;;;;;;;;;;4180978;28;31931;-56
2021/12/24 10:22:07;;;;;;;;;;;;;;;;;;4180343;28;32210;-55
2021/12/24 10:24:29;;;;;;;;;;;;;;;;;;4192161;28;31673;-55
2021/12/24 10:26:51;;;;;;;;;;;;;;;;;;4195436;28;31768;-56
2021/12/24 10:29:15;;;;;;;;;;;;;;;;;;4185265;28;31693;-55
2021/12/24 10:31:36;;;;;;;;;;;;;;;;;;4168582;28;31713;-58
2021/12/24 10:34:21;;;;;;;;;;;;;;;;;;4168778;28;32179;-58
2021/12/24 10:36:57;;;;;;;;;;;;;;;;;;4174831;28;31702;-58
2021/12/24 10:39:20;;;;;;;;;;;;;;;;;;4171753;28;32309;-56
2021/12/24 10:41:42;;;;;;;;;;;;;;;;;;4185545;28;31726;-58
2021/12/24 10:44:14;;;;;;;;;;;;;;;;;;4185578;28;32348;-57
2021/12/24 10:46:36;;;;;;;;;;;;;;;;;;4170277;28;31799;-58
2021/12/24 10:49:02;;;;;;;;;;;;;;;;;;4184609;28;32369;-58
2021/12/24 10:51:52;;;;;;;;;;;;;;;;;;4185141;28;31699;-57
2021/12/24 10:54:04;;;;;;;;;;;;;;;;;;4185010;28;31855;-57
2021/12/24 10:56:27;;;;;;;;;;;;;;;;;;4185234;28;32095;-57
2021/12/24 10:58:48;;;;;;;;;;;;;;;;;;4181441;28;31599;-57
2021/12/24 11:01:09;;;;;;;;;;;;;;;;;;4173054;28;31719;-58
2021/12/24 11:03:32;;;;;;;;;;;;;;;;;;4177701;28;31692;-57
2021/12/24 11:05:53;;;;;;;;;;;;;;;;;;4184783;28;31624;-57
2021/12/24 11:08:15;;;;;;;;;;;;;;;;;;4179370;28;31036;-57
2021/12/24 11:10:38;;;;;;;;;;;;;;;;;;4178043;28;32067;-57
2021/12/24 11:13:07;;;;;;;;;;;;;;;;;;4183821;28;32157;-57
2021/12/24 11:15:30;;;;;;;;;;;;;;;;;;4184399;28;31939;-58
2021/12/24 11:17:52;;;;;;;;;;;;;;;;;;4180122;28;31813;-58
2021/12/24 11:20:13;;;;;;;;;;;;;;;;;;4182912;28;31766;-57
2021/12/24 11:22:35;;;;;;;;;;;;;;;;;;4179777;28;32260;-57
2021/12/24 11:24:56;;;;;;;;;;;;;;;;;;4180010;28;32147;-57
2021/12/24 11:27:18;;;;;;;;;;;;;;;;;;4180815;28;32155;-57
2021/12/24 11:29:41;;;;;;;;;;;;;;;;;;4182827;28;31726;-57
2021/12/24 11:32:02;;;;;;;;;;;;;;;;;;4180924;28;31706;-57
2021/12/24 11:34:23;;;;;;;;;;;;;;;;;;4182734;28;32211;-56
2021/12/24 11:36:44;;;;;;;;;;;;;;;;;;4182935;28;32317;-56
2021/12/24 11:39:06;;;;;;;;;;;;;;;;;;4182202;28;31884;-58
2021/12/24 11:41:29;;;;;;;;;;;;;;;;;;4182360;28;31253;-58
2021/12/24 11:43:51;;;;;;;;;;;;;;;;;;4182307;28;31429;-58
2021/12/24 11:46:15;;;;;;;;;;;;;;;;;;4183273;28;31455;-58
2021/12/24 11:48:37;;;;;;;;;;;;;;;;;;4182395;28;31459;-58
2021/12/24 11:50:58;;;;;;;;;;;;;;;;;;4182451;28;32265;-58
2021/12/24 11:53:19;;;;;;;;;;;;;;;;;;4182848;28;31057;-58
2021/12/24 11:55:41;;;;;;;;;;;;;;;;;;4182636;28;31716;-59
2021/12/24 11:58:03;;;;;;;;;;;;;;;;;;4182122;28;31342;-58
2021/12/24 12:00:25;;;;;;;;;;;;;;;;;;4181846;28;32078;-58
2021/12/24 12:02:47;;;;;;;;;;;;;;;;;;4180646;28;31907;-58
2021/12/24 12:05:12;;;;;;;;;;;;;;;;;;4181739;28;31412;-59
2021/12/24 12:07:33;;;;;;;;;;;;;;;;;;4182367;28;31553;-59
2021/12/24 12:09:54;;;;;;;;;;;;;;;;;;4182390;28;31805;-59
2021/12/24 12:12:16;;;;;;;;;;;;;;;;;;4181864;28;31455;-58
2021/12/24 12:14:38;;;;;;;;;;;;;;;;;;4182296;28;31308;-58
2021/12/24 12:17:00;;;;;;;;;;;;;;;;;;4182397;28;32166;-59
2021/12/24 12:19:26;;;;;;;;;;;;;;;;;;4164422;28;31466;-58
2021/12/24 12:22:11;;;;;;;;;;;;;;;;;;4165811;28;31399;-58
2021/12/24 12:27:18;;;;;;;;;;;;;;;;;;4181814;28;32083;-59
2021/12/24 12:29:43;;;;;;;;;;;;;;;;;;4180967;28;31805;-58
2021/12/24 12:32:05;;;;;;;;;;;;;;;;;;4180956;28;31733;-57
2021/12/24 12:34:45;;;;;;;;;;;;;;;;;;4183177;28;31987;-58
2021/12/24 12:37:14;;;;;;;;;;;;;;;;;;4183023;28;31874;-57
2021/12/24 12:39:36;;;;;;;;;;;;;;;;;;4183227;28;31652;-57
2021/12/24 12:41:58;;;;;;;;;;;;;;;;;;4183374;28;32269;-58
2021/12/24 12:44:19;;;;;;;;;;;;;;;;;;4183208;28;31407;-58
2021/12/24 12:46:41;;;;;;;;;;;;;;;;;;4182205;28;31461;-58
2021/12/24 12:49:03;;;;;;;;;;;;;;;;;;4182578;28;32145;-59
2021/12/24 12:51:45;;;;;;;;;;;;;;;;;;4183384;28;32196;-57
2021/12/24 12:54:24;;;;;;;;;;;;;;;;;;4183073;28;32198;-57
2021/12/24 12:56:54;;;;;;;;;;;;;;;;;;4181774;28;32308;-58
2021/12/24 12:59:16;;;;;;;;;;;;;;;;;;4182098;28;32084;-57
2021/12/24 13:01:49;;;;;;;;;;;;;;;;;;4182845;28;31626;-58
2021/12/24 13:04:12;;;;;;;;;;;;;;;;;;4183119;28;31807;-57
2021/12/24 13:06:47;;;;;;;;;;;;;;;;;;4183217;28;31024;-57
2021/12/24 13:09:08;;;;;;;;;;;;;;;;;;4182979;28;32238;-58
2021/12/24 13:11:29;;;;;;;;;;;;;;;;;;4183058;28;31765;-57
2021/12/24 13:13:56;;;;;;;;;;;;;;;;;;4183293;28;31608;-57
2021/12/24 13:16:18;;;;;;;;;;;;;;;;;;4178269;28;31483;-57
2021/12/24 13:18:41;;;;;;;;;;;;;;;;;;4182623;28;31842;-58
2021/12/24 13:23:54;;;;;;;;;;;;;;;;;;4148092;28;32250;-57
2021/12/24 13:26:17;;;;;;;;;;;;;;;;;;4176072;28;31571;-58
2021/12/24 13:28:54;;;;;;;;;;;;;;;;;;4182584;28;31624;-57
2021/12/24 13:31:15;;;;;;;;;;;;;;;;;;4181138;28;31635;-58
2021/12/24 13:33:36;;;;;;;;;;;;;;;;;;4182631;28;31720;-57
2021/12/24 13:35:58;;;;;;;;;;;;;;;;;;4182726;28;31715;-58
2021/12/24 13:38:19;;;;;;;;;;;;;;;;;;4182562;28;31732;-57
2021/12/24 13:40:40;;;;;;;;;;;;;;;;;;4182547;28;32184;-58
2021/12/24 13:43:03;;;;;;;;;;;;;;;;;;4182525;28;32055;-57
2021/12/24 13:45:26;;;;;;;;;;;;;;;;;;4182268;28;31657;-57
2021/12/24 13:47:54;;;;;;;;;;;;;;;;;;4182743;28;32137;-58
2021/12/24 13:55:38;;;;;;;;;;;;;;;;;;4182130;28;32428;-57
2021/12/24 13:58:01;;;;;;;;;;;;;;;;;;4182054;28;31694;-57
2021/12/24 14:00:22;;;;;;;;;;;;;;;;;;4182388;28;32099;-57
2021/12/24 14:02:48;;;;;;;;;;;;;;;;;;4182098;28;32245;-57
2021/12/24 14:05:11;;;;;;;;;;;;;;;;;;4181850;28;31893;-58
2021/12/24 14:07:33;;;;;;;;;;;;;;;;;;4181663;28;31584;-58
2021/12/24 14:09:54;;;;;;;;;;;;;;;;;;4180894;28;32211;-58
2021/12/24 14:12:15;;;;;;;;;;;;;;;;;;4182086;28;31593;-57
2021/12/24 14:17:23;;;;;;;;;;;;;;;;;;4236472;27;1391;-57
2021/12/24 14:19:50;;;;;;;;;;;;;;;;;;4228374;28;1187;-57
2021/12/24 14:22:11;;;;;;;;;;;;;;;;;;4236270;28;1007;-58
2021/12/24 14:24:36;;;;;;;;;;;;;;;;;;4219099;28;928;-57
2021/12/24 14:26:56;;;;;;;;;;;;;;;;;;4227597;28;1425;-57
2021/12/24 14:29:16;;;;;;;;;;;;;;;;;;4235958;27;1085;-57
2021/12/24 14:31:37;;;;;;;;;;;;;;;;;;4234814;28;832;-57
2021/12/24 14:33:57;;;;;;;;;;;;;;;;;;4236087;27;1520;-58
2021/12/24 14:36:17;;;;;;;;;;;;;;;;;;4235898;27;1906;-58
2021/12/24 14:38:38;;;;;;;;;;;;;;;;;;4235752;27;1171;-57
2021/12/24 14:40:58;;;;;;;;;;;;;;;;;;4236012;27;1050;-57
2021/12/24 14:43:19;;;;;;;;;;;;;;;;;;4236091;27;937;-58
2021/12/24 14:45:40;;;;;;;;;;;;;;;;;;4236106;27;949;-57
2021/12/24 14:48:01;;;;;;;;;;;;;;;;;;4235787;27;996;-57
2021/12/24 14:50:21;;;;;;;;;;;;;;;;;;4236157;28;932;-57
2021/12/24 14:52:41;;;;;;;;;;;;;;;;;;4235626;27;1305;-58
2021/12/24 14:55:02;;;;;;;;;;;;;;;;;;4235802;27;1214;-58
2021/12/24 14:57:24;;;;;;;;;;;;;;;;;;4218328;28;1023;-57
2021/12/24 14:59:44;;;;;;;;;;;;;;;;;;4218442;28;1024;-57
2021/12/24 15:02:04;;;;;;;;;;;;;;;;;;4218647;28;1232;-57
2021/12/24 15:04:25;;;;;;;;;;;;;;;;;;4234942;28;1516;-58
2021/12/24 15:06:45;;;;;;;;;;;;;;;;;;4234252;28;926;-57
2021/12/24 15:09:05;;;;;;;;;;;;;;;;;;4235237;28;980;-57
2021/12/24 15:11:25;;;;;;;;;;;;;;;;;;4235330;27;981;-58
2021/12/24 15:13:45;;;;;;;;;;;;;;;;;;4235424;27;1345;-57
2021/12/24 15:16:06;;;;;;;;;;;;;;;;;;4235048;28;1921;-57
2021/12/24 15:18:26;;;;;;;;;;;;;;;;;;4235162;28;1012;-58
2021/12/24 15:20:46;;;;;;;;;;;;;;;;;;4234996;28;1011;-58
2021/12/24 15:23:06;;;;;;;;;;;;;;;;;;4235326;28;1079;-58
2021/12/24 15:25:27;;;;;;;;;;;;;;;;;;4234957;28;1072;-58
2021/12/24 15:27:47;;;;;;;;;;;;;;;;;;4227755;28;1016;-57
2021/12/24 15:30:08;;;;;;;;;;;;;;;;;;4223452;28;1370;-57
2021/12/24 15:32:28;;;;;;;;;;;;;;;;;;4222568;28;1156;-58
2021/12/24 15:34:48;;;;;;;;;;;;;;;;;;4223410;28;1356;-57
2021/12/24 15:37:09;;;;;;;;;;;;;;;;;;4222547;28;1925;-58
2021/12/24 15:39:29;;;;;;;;;;;;;;;;;;4223404;28;1147;-58
2021/12/24 15:41:49;;;;;;;;;;;;;;;;;;4223211;28;975;-57
2021/12/24 15:44:12;;;;;;;;;;;;;;;;;;4223717;28;1475;-57
2021/12/24 15:46:34;;;;;;;;;;;;;;;;;;4223273;28;1030;-58
2021/12/24 15:48:54;;;;;;;;;;;;;;;;;;4223495;28;1065;-57
2021/12/24 15:51:14;;;;;;;;;;;;;;;;;;4221318;28;1114;-57
2021/12/24 15:53:34;;;;;;;;;;;;;;;;;;4223233;28;972;-57
2021/12/24 15:55:54;;;;;;;;;;;;;;;;;;4223243;28;1909;-57
2021/12/24 15:58:16;;;;;;;;;;;;;;;;;;4223406;28;1114;-57
2021/12/24 16:00:36;;;;;;;;;;;;;;;;;;4223281;28;1042;-58
2021/12/24 16:02:56;;;;;;;;;;;;;;;;;;4223273;28;1187;-57
2021/12/24 16:05:17;;;;;;;;;;;;;;;;;;4223299;28;1102;-57
2021/12/24 16:07:37;;;;;;;;;;;;;;;;;;4223254;28;1158;-57
2021/12/24 16:09:58;;;;;;;;;;;;;;;;;;4222986;28;1139;-57
2021/12/24 16:12:18;;;;;;;;;;;;;;;;;;4223219;28;1134;-57
2021/12/24 16:14:39;;;;;;;;;;;;;;;;;;4222799;28;1168;-58
2021/12/24 16:16:59;;;;;;;;;;;;;;;;;;4222564;28;1906;-56
2021/12/24 16:19:21;;;;;;;;;;;;;;;;;;4223572;28;1016;-57
2021/12/24 16:21:41;;;;;;;;;;;;;;;;;;4223265;28;1137;-57
2021/12/24 16:24:01;;;;;;;;;;;;;;;;;;4222287;28;1309;-57
2021/12/24 16:26:22;;;;;;;;;;;;;;;;;;4206469;28;1277;-57
2021/12/24 16:28:42;;;;;;;;;;;;;;;;;;4209698;28;941;-57
2021/12/24 16:31:02;;;;;;;;;;;;;;;;;;4217437;28;1157;-57
2021/12/24 16:33:22;;;;;;;;;;;;;;;;;;4222263;28;1005;-57
2021/12/24 16:35:43;;;;;;;;;;;;;;;;;;4222061;28;1180;-57
2021/12/24 16:38:03;;;;;;;;;;;;;;;;;;4221892;28;1103;-57
2021/12/24 16:40:24;;;;;;;;;;;;;;;;;;4221316;28;1281;-57
2021/12/24 16:42:48;;;;;;;;;;;;;;;;;;4220899;28;1011;-57
2021/12/24 16:45:08;;;;;;;;;;;;;;;;;;4221190;28;1311;-58
2021/12/24 16:47:28;;;;;;;;;;;;;;;;;;4221342;28;997;-57
2021/12/24 16:49:48;;;;;;;;;;;;;;;;;;4221438;28;985;-57
2021/12/24 16:52:09;;;;;;;;;;;;;;;;;;4221988;28;986;-58
2021/12/24 16:54:29;;;;;;;;;;;;;;;;;;4205472;28;1367;-57
2021/12/24 16:56:49;;;;;;;;;;;;;;;;;;4204975;28;1937;-57
2021/12/24 16:59:10;;;;;;;;;;;;;;;;;;4219287;28;1530;-57
2021/12/24 17:01:30;;;;;;;;;;;;;;;;;;4205369;28;1065;-57
2021/12/24 17:03:51;;;;;;;;;;;;;;;;;;4221808;28;1506;-57
2021/12/24 17:06:11;;;;;;;;;;;;;;;;;;4221594;28;1161;-57
2021/12/24 17:08:32;;;;;;;;;;;;;;;;;;4221578;28;1137;-57
2021/12/24 17:10:52;;;;;;;;;;;;;;;;;;4221332;28;1118;-58
2021/12/24 17:13:12;;;;;;;;;;;;;;;;;;4221614;28;1145;-57
2021/12/24 17:15:32;;;;;;;;;;;;;;;;;;4221854;28;1072;-57
2021/12/24 17:17:53;;;;;;;;;;;;;;;;;;4221192;28;1984;-57
2021/12/24 17:20:13;;;;;;;;;;;;;;;;;;4221233;28;1049;-57
2021/12/24 17:22:34;;;;;;;;;;;;;;;;;;4221249;28;913;-57
2021/12/24 17:24:55;;;;;;;;;;;;;;;;;;4221406;28;1185;-58
2021/12/24 17:27:15;;;;;;;;;;;;;;;;;;4221094;28;1152;-58
2021/12/24 17:29:35;;;;;;;;;;;;;;;;;;4221306;28;1102;-57
2021/12/24 17:31:55;;;;;;;;;;;;;;;;;;4220983;28;961;-57
2021/12/24 17:34:16;;;;;;;;;;;;;;;;;;4221112;28;1175;-57
2021/12/24 17:36:36;;;;;;;;;;;;;;;;;;4220564;28;1906;-57
2021/12/24 17:38:56;;;;;;;;;;;;;;;;;;4220776;28;1226;-57
2021/12/24 17:41:17;;;;;;;;;;;;;;;;;;4220701;28;1005;-57
2021/12/24 17:43:37;;;;;;;;;;;;;;;;;;4219632;28;1155;-57
2021/12/24 17:45:57;;;;;;;;;;;;;;;;;;4220788;28;1009;-58
2021/12/24 17:48:18;;;;;;;;;;;;;;;;;;4220790;28;1067;-57
2021/12/24 17:50:38;;;;;;;;;;;;;;;;;;4220469;28;965;-57
2021/12/24 17:52:58;;;;;;;;;;;;;;;;;;4221213;28;1044;-57
2021/12/24 17:55:19;;;;;;;;;;;;;;;;;;4221398;28;1097;-57
2021/12/24 17:57:39;;;;;;;;;;;;;;;;;;4221468;28;1981;-57
2021/12/24 17:59:59;;;;;;;;;;;;;;;;;;4221529;28;1079;-57